CheckWX is a tool to help pilots better visualize weather data.  It is not intended as a substitute for an official pre-flight weather briefing.

18:35:21 UTC

PTYA TAF
Yap International Airport
Yap Island, Federated States of Micronesia
PTYA 171729Z 1718/1818 VRB06KT P6SM VCSH FEW016 SCT040 BKN140 FM180000 07011KT P6SM VCSH SCT016 SCT040 BKN120 TEMPO 1800/1804 5SM SHRA BKN014 OVC030

Nov-17@
18:00 UTC

Nov-17 @ 18:00 UTC

Nov-18@
00:00 UTC

Nov-18 @ 00:00 UTC

PTYA 171729Z 1718/1818 VRB06KT P6SM VCSH FEW016 SCT040 BKN140
Wind
  • Variable at 6 KTS
Cloud Levels
  • Few at 1,600' AGL
  • Scattered at 4,000' AGL
  • Broken at 14,000' AGL

Nov-18@
00:00 UTC

Nov-18 @ 00:00 UTC

Nov-18@
04:00 UTC

Nov-18 @ 04:00 UTC

TEMPO 1800/1804 5SM SHRA BKN014 OVC030

Temporary

Temporary Changes expected for less than half the time period

Conditions
Rain
Cloud Levels
  • Broken at 1,400' AGL
  • Overcast at 3,000' AGL

Nov-18@
00:00 UTC

Nov-18 @ 00:00 UTC

Nov-18@
18:00 UTC

Nov-18 @ 18:00 UTC

FM180000 07011KT P6SM VCSH SCT016 SCT040 BKN120

From

From Standard forecast or significant change

Wind
  • 070° at 11 KTS
Cloud Levels
  • Scattered at 1,600' AGL
  • Scattered at 4,000' AGL
  • Broken at 12,000' AGL